sensor_id;sensor_type;location;lat;lon;timestamp;temperature;humidity
48551;DHT22;34397;51.176;6.738;2024-03-25T00:01:00;5.90;80.50
48551;DHT22;34397;51.176;6.738;2024-03-25T00:03:34;5.90;80.80
48551;DHT22;34397;51.176;6.738;2024-03-25T00:06:05;5.80;80.70
48551;DHT22;34397;51.176;6.738;2024-03-25T00:08:37;5.80;80.90
48551;DHT22;34397;51.176;6.738;2024-03-25T00:11:08;5.80;80.80
48551;DHT22;34397;51.176;6.738;2024-03-25T00:13:40;5.80;81.00
48551;DHT22;34397;51.176;6.738;2024-03-25T00:16:11;5.80;80.70
48551;DHT22;34397;51.176;6.738;2024-03-25T00:18:44;5.70;81.00
48551;DHT22;34397;51.176;6.738;2024-03-25T00:21:15;5.70;81.20
48551;DHT22;34397;51.176;6.738;2024-03-25T00:23:47;5.70;81.30
48551;DHT22;34397;51.176;6.738;2024-03-25T00:26:18;5.70;81.60
48551;DHT22;34397;51.176;6.738;2024-03-25T00:28:50;5.70;81.90
48551;DHT22;34397;51.176;6.738;2024-03-25T00:31:20;5.60;82.30
48551;DHT22;34397;51.176;6.738;2024-03-25T00:33:54;5.60;82.20
48551;DHT22;34397;51.176;6.738;2024-03-25T00:36:24;5.60;82.00
48551;DHT22;34397;51.176;6.738;2024-03-25T00:38:56;5.60;82.20
48551;DHT22;34397;51.176;6.738;2024-03-25T00:41:27;5.50;82.30
48551;DHT22;34397;51.176;6.738;2024-03-25T00:43:59;5.50;82.20
48551;DHT22;34397;51.176;6.738;2024-03-25T00:46:30;5.50;82.40
48551;DHT22;34397;51.176;6.738;2024-03-25T00:49:03;5.50;82.40
48551;DHT22;34397;51.176;6.738;2024-03-25T00:51:34;5.40;82.50
48551;DHT22;34397;51.176;6.738;2024-03-25T00:54:06;5.40;82.90
48551;DHT22;34397;51.176;6.738;2024-03-25T00:56:37;5.40;83.10
48551;DHT22;34397;51.176;6.738;2024-03-25T00:59:09;5.40;83.20
48551;DHT22;34397;51.176;6.738;2024-03-25T01:01:40;5.40;83.00
48551;DHT22;34397;51.176;6.738;2024-03-25T01:04:13;5.40;83.10
48551;DHT22;34397;51.176;6.738;2024-03-25T01:06:44;5.40;83.10
48551;DHT22;34397;51.176;6.738;2024-03-25T01:09:16;5.40;83.10
48551;DHT22;34397;51.176;6.738;2024-03-25T01:11:46;5.40;83.00
48551;DHT22;34397;51.176;6.738;2024-03-25T01:14:18;5.40;82.80
48551;DHT22;34397;51.176;6.738;2024-03-25T01:16:49;5.40;83.00
48551;DHT22;34397;51.176;6.738;2024-03-25T01:19:22;5.40;82.80
48551;DHT22;34397;51.176;6.738;2024-03-25T01:21:53;5.50;82.80
48551;DHT22;34397;51.176;6.738;2024-03-25T01:24:25;5.50;82.80
48551;DHT22;34397;51.176;6.738;2024-03-25T01:26:56;5.40;82.50
48551;DHT22;34397;51.176;6.738;2024-03-25T01:29:28;5.40;82.60
48551;DHT22;34397;51.176;6.738;2024-03-25T01:31:59;5.40;82.50
48551;DHT22;34397;51.176;6.738;2024-03-25T01:34:34;5.40;82.30
48551;DHT22;34397;51.176;6.738;2024-03-25T01:37:05;5.40;82.20
48551;DHT22;34397;51.176;6.738;2024-03-25T01:39:37;5.40;82.20
48551;DHT22;34397;51.176;6.738;2024-03-25T01:42:09;5.40;82.20
48551;DHT22;34397;51.176;6.738;2024-03-25T01:44:41;5.40;82.10
48551;DHT22;34397;51.176;6.738;2024-03-25T01:47:12;5.40;82.10
48551;DHT22;34397;51.176;6.738;2024-03-25T01:49:45;5.30;82.00
48551;DHT22;34397;51.176;6.738;2024-03-25T01:52:16;5.30;82.10
48551;DHT22;34397;51.176;6.738;2024-03-25T01:54:48;5.20;82.30
48551;DHT22;34397;51.176;6.738;2024-03-25T01:57:20;5.20;82.40
48551;DHT22;34397;51.176;6.738;2024-03-25T01:59:52;5.20;82.40
48551;DHT22;34397;51.176;6.738;2024-03-25T02:02:24;5.10;82.60
48551;DHT22;34397;51.176;6.738;2024-03-25T02:04:57;5.10;82.70
48551;DHT22;34397;51.176;6.738;2024-03-25T02:07:28;5.10;82.80
48551;DHT22;34397;51.176;6.738;2024-03-25T02:10:02;5.10;83.20
48551;DHT22;34397;51.176;6.738;2024-03-25T02:12:33;5.10;82.50
48551;DHT22;34397;51.176;6.738;2024-03-25T02:15:06;5.10;82.50
48551;DHT22;34397;51.176;6.738;2024-03-25T02:17:39;5.10;82.80
48551;DHT22;34397;51.176;6.738;2024-03-25T02:20:12;5.10;82.90
48551;DHT22;34397;51.176;6.738;2024-03-25T02:22:46;5.10;83.10
48551;DHT22;34397;51.176;6.738;2024-03-25T02:25:18;5.10;82.90
48551;DHT22;34397;51.176;6.738;2024-03-25T02:27:50;5.10;82.80
48551;DHT22;34397;51.176;6.738;2024-03-25T02:30:22;5.10;82.90
48551;DHT22;34397;51.176;6.738;2024-03-25T02:32:52;5.10;82.60
48551;DHT22;34397;51.176;6.738;2024-03-25T02:35:25;5.10;82.60
48551;DHT22;34397;51.176;6.738;2024-03-25T02:37:57;5.10;82.60
48551;DHT22;34397;51.176;6.738;2024-03-25T02:40:29;5.10;82.80
48551;DHT22;34397;51.176;6.738;2024-03-25T02:43:02;5.10;83.00
48551;DHT22;34397;51.176;6.738;2024-03-25T02:45:34;5.10;82.50
48551;DHT22;34397;51.176;6.738;2024-03-25T02:48:05;5.10;82.40
48551;DHT22;34397;51.176;6.738;2024-03-25T02:50:37;5.00;82.40
48551;DHT22;34397;51.176;6.738;2024-03-25T02:53:08;5.00;82.40
48551;DHT22;34397;51.176;6.738;2024-03-25T02:55:40;5.00;82.50
48551;DHT22;34397;51.176;6.738;2024-03-25T02:58:12;5.00;82.50
48551;DHT22;34397;51.176;6.738;2024-03-25T03:00:44;4.90;82.60
48551;DHT22;34397;51.176;6.738;2024-03-25T03:03:15;4.90;82.70
48551;DHT22;34397;51.176;6.738;2024-03-25T03:05:47;4.80;82.80
48551;DHT22;34397;51.176;6.738;2024-03-25T03:08:18;4.80;83.00
48551;DHT22;34397;51.176;6.738;2024-03-25T03:10:50;4.80;83.10
48551;DHT22;34397;51.176;6.738;2024-03-25T03:13:22;4.80;83.10
48551;DHT22;34397;51.176;6.738;2024-03-25T03:15:53;4.80;83.00
48551;DHT22;34397;51.176;6.738;2024-03-25T03:18:24;4.80;83.00
48551;DHT22;34397;51.176;6.738;2024-03-25T03:20:56;4.80;83.00
48551;DHT22;34397;51.176;6.738;2024-03-25T03:23:27;4.70;83.00
48551;DHT22;34397;51.176;6.738;2024-03-25T03:25:59;4.70;83.00
48551;DHT22;34397;51.176;6.738;2024-03-25T03:28:32;4.70;83.20
48551;DHT22;34397;51.176;6.738;2024-03-25T03:31:04;4.70;84.10
48551;DHT22;34397;51.176;6.738;2024-03-25T03:33:35;4.70;83.50
48551;DHT22;34397;51.176;6.738;2024-03-25T03:36:07;4.70;83.50
48551;DHT22;34397;51.176;6.738;2024-03-25T03:38:37;4.80;83.40
48551;DHT22;34397;51.176;6.738;2024-03-25T03:41:09;4.80;83.20
48551;DHT22;34397;51.176;6.738;2024-03-25T03:43:43;4.80;82.90
48551;DHT22;34397;51.176;6.738;2024-03-25T03:46:15;4.80;82.80
48551;DHT22;34397;51.176;6.738;2024-03-25T03:48:46;4.80;82.70
48551;DHT22;34397;51.176;6.738;2024-03-25T03:51:18;4.80;82.60
48551;DHT22;34397;51.176;6.738;2024-03-25T03:53:48;4.80;83.10
48551;DHT22;34397;51.176;6.738;2024-03-25T03:56:20;4.70;82.60
48551;DHT22;34397;51.176;6.738;2024-03-25T03:58:52;4.70;82.80
48551;DHT22;34397;51.176;6.738;2024-03-25T04:01:24;4.70;83.20
48551;DHT22;34397;51.176;6.738;2024-03-25T04:03:55;4.70;83.40
48551;DHT22;34397;51.176;6.738;2024-03-25T04:06:27;4.70;83.40
48551;DHT22;34397;51.176;6.738;2024-03-25T04:08:58;4.80;83.40
48551;DHT22;34397;51.176;6.738;2024-03-25T04:11:29;4.80;83.30
48551;DHT22;34397;51.176;6.738;2024-03-25T04:14:02;4.80;83.00
48551;DHT22;34397;51.176;6.738;2024-03-25T04:16:34;4.90;82.90
48551;DHT22;34397;51.176;6.738;2024-03-25T04:19:05;4.90;82.60
48551;DHT22;34397;51.176;6.738;2024-03-25T04:21:36;4.90;82.50
48551;DHT22;34397;51.176;6.738;2024-03-25T04:24:07;4.90;82.40
48551;DHT22;34397;51.176;6.738;2024-03-25T04:26:39;4.90;82.20
48551;DHT22;34397;51.176;6.738;2024-03-25T04:29:11;4.80;82.00
48551;DHT22;34397;51.176;6.738;2024-03-25T04:31:44;4.80;82.10
48551;DHT22;34397;51.176;6.738;2024-03-25T04:34:15;4.80;82.00
48551;DHT22;34397;51.176;6.738;2024-03-25T04:36:46;4.80;81.90
48551;DHT22;34397;51.176;6.738;2024-03-25T04:39:17;4.80;81.90
48551;DHT22;34397;51.176;6.738;2024-03-25T04:41:48;4.70;81.80
48551;DHT22;34397;51.176;6.738;2024-03-25T04:44:21;4.70;81.90
48551;DHT22;34397;51.176;6.738;2024-03-25T04:46:52;4.70;81.80
48551;DHT22;34397;51.176;6.738;2024-03-25T04:49:23;4.70;81.80
48551;DHT22;34397;51.176;6.738;2024-03-25T04:51:54;4.60;81.70
48551;DHT22;34397;51.176;6.738;2024-03-25T04:54:25;4.60;81.80
48551;DHT22;34397;51.176;6.738;2024-03-25T04:56:55;4.60;81.90
48551;DHT22;34397;51.176;6.738;2024-03-25T04:59:28;4.60;82.00
48551;DHT22;34397;51.176;6.738;2024-03-25T05:01:59;4.50;82.00
48551;DHT22;34397;51.176;6.738;2024-03-25T05:04:30;4.50;82.10
48551;DHT22;34397;51.176;6.738;2024-03-25T05:07:01;4.50;82.10
48551;DHT22;34397;51.176;6.738;2024-03-25T05:09:32;4.50;82.10
48551;DHT22;34397;51.176;6.738;2024-03-25T05:12:03;4.60;82.00
48551;DHT22;34397;51.176;6.738;2024-03-25T05:14:35;4.60;81.90
48551;DHT22;34397;51.176;6.738;2024-03-25T05:17:06;4.60;81.80
48551;DHT22;34397;51.176;6.738;2024-03-25T05:19:37;4.60;81.70
48551;DHT22;34397;51.176;6.738;2024-03-25T05:22:08;4.60;81.70
48551;DHT22;34397;51.176;6.738;2024-03-25T05:24:39;4.60;81.50
48551;DHT22;34397;51.176;6.738;2024-03-25T05:27:10;4.60;81.50
48551;DHT22;34397;51.176;6.738;2024-03-25T05:29:42;4.50;81.40
48551;DHT22;34397;51.176;6.738;2024-03-25T05:32:13;4.50;81.50
48551;DHT22;34397;51.176;6.738;2024-03-25T05:34:44;4.50;81.50
48551;DHT22;34397;51.176;6.738;2024-03-25T05:37:15;4.50;81.40
48551;DHT22;34397;51.176;6.738;2024-03-25T05:39:46;4.50;82.10
48551;DHT22;34397;51.176;6.738;2024-03-25T05:42:17;4.50;81.50
48551;DHT22;34397;51.176;6.738;2024-03-25T05:44:49;4.50;81.50
48551;DHT22;34397;51.176;6.738;2024-03-25T05:47:20;4.50;81.40
48551;DHT22;34397;51.176;6.738;2024-03-25T05:49:51;4.50;81.40
48551;DHT22;34397;51.176;6.738;2024-03-25T05:52:22;4.50;81.30
48551;DHT22;34397;51.176;6.738;2024-03-25T05:54:53;4.50;81.30
48551;DHT22;34397;51.176;6.738;2024-03-25T05:57:24;4.50;81.10
48551;DHT22;34397;51.176;6.738;2024-03-25T05:59:56;4.50;81.20
48551;DHT22;34397;51.176;6.738;2024-03-25T06:02:27;4.40;81.30
48551;DHT22;34397;51.176;6.738;2024-03-25T06:04:58;4.40;81.30
48551;DHT22;34397;51.176;6.738;2024-03-25T06:07:29;4.40;81.40
48551;DHT22;34397;51.176;6.738;2024-03-25T06:10:00;4.40;81.40
48551;DHT22;34397;51.176;6.738;2024-03-25T06:12:31;4.40;81.40
48551;DHT22;34397;51.176;6.738;2024-03-25T06:15:04;4.40;81.50
48551;DHT22;34397;51.176;6.738;2024-03-25T06:17:36;4.30;81.50
48551;DHT22;34397;51.176;6.738;2024-03-25T06:20:08;4.30;81.60
48551;DHT22;34397;51.176;6.738;2024-03-25T06:22:40;4.30;81.70
48551;DHT22;34397;51.176;6.738;2024-03-25T06:25:11;4.30;81.90
48551;DHT22;34397;51.176;6.738;2024-03-25T06:27:42;4.30;82.10
48551;DHT22;34397;51.176;6.738;2024-03-25T06:30:14;4.30;82.20
48551;DHT22;34397;51.176;6.738;2024-03-25T06:33:04;4.30;82.30
48551;DHT22;34397;51.176;6.738;2024-03-25T06:35:53;4.40;82.40
48551;DHT22;34397;51.176;6.738;2024-03-25T06:38:24;4.40;82.40
48551;DHT22;34397;51.176;6.738;2024-03-25T06:40:55;4.40;82.50
48551;DHT22;34397;51.176;6.738;2024-03-25T06:43:26;4.50;82.60
48551;DHT22;34397;51.176;6.738;2024-03-25T06:45:58;4.50;82.50
48551;DHT22;34397;51.176;6.738;2024-03-25T06:48:29;4.60;82.30
48551;DHT22;34397;51.176;6.738;2024-03-25T06:51:01;4.60;82.50
48551;DHT22;34397;51.176;6.738;2024-03-25T06:53:32;4.60;82.50
48551;DHT22;34397;51.176;6.738;2024-03-25T06:56:03;4.70;82.40
48551;DHT22;34397;51.176;6.738;2024-03-25T06:58:35;4.70;82.30
48551;DHT22;34397;51.176;6.738;2024-03-25T07:01:08;4.70;82.30
48551;DHT22;34397;51.176;6.738;2024-03-25T07:03:40;4.70;82.30
48551;DHT22;34397;51.176;6.738;2024-03-25T07:06:11;4.70;82.30
48551;DHT22;34397;51.176;6.738;2024-03-25T07:08:42;4.80;82.30
48551;DHT22;34397;51.176;6.738;2024-03-25T07:11:13;4.80;82.30
48551;DHT22;34397;51.176;6.738;2024-03-25T07:13:44;4.80;82.50
48551;DHT22;34397;51.176;6.738;2024-03-25T07:16:16;4.90;82.60
48551;DHT22;34397;51.176;6.738;2024-03-25T07:18:47;4.90;82.50
48551;DHT22;34397;51.176;6.738;2024-03-25T07:21:18;4.90;82.50
48551;DHT22;34397;51.176;6.738;2024-03-25T07:23:49;5.00;82.60
48551;DHT22;34397;51.176;6.738;2024-03-25T07:26:20;5.00;82.60
48551;DHT22;34397;51.176;6.738;2024-03-25T07:28:51;5.10;82.60
48551;DHT22;34397;51.176;6.738;2024-03-25T07:31:23;5.10;82.50
48551;DHT22;34397;51.176;6.738;2024-03-25T07:33:54;5.20;82.30
48551;DHT22;34397;51.176;6.738;2024-03-25T07:36:25;5.20;82.20
48551;DHT22;34397;51.176;6.738;2024-03-25T07:38:56;5.20;82.10
48551;DHT22;34397;51.176;6.738;2024-03-25T07:41:27;5.30;82.20
48551;DHT22;34397;51.176;6.738;2024-03-25T07:43:58;5.30;81.90
48551;DHT22;34397;51.176;6.738;2024-03-25T07:46:30;5.30;81.70
48551;DHT22;34397;51.176;6.738;2024-03-25T07:49:02;5.40;81.80
48551;DHT22;34397;51.176;6.738;2024-03-25T07:51:33;5.50;81.90
48551;DHT22;34397;51.176;6.738;2024-03-25T07:54:04;5.50;82.20
48551;DHT22;34397;51.176;6.738;2024-03-25T07:56:35;5.50;81.80
48551;DHT22;34397;51.176;6.738;2024-03-25T07:59:06;5.60;82.00
48551;DHT22;34397;51.176;6.738;2024-03-25T08:01:38;5.60;81.70
48551;DHT22;34397;51.176;6.738;2024-03-25T08:04:09;5.70;81.40
48551;DHT22;34397;51.176;6.738;2024-03-25T08:06:40;5.70;81.10
48551;DHT22;34397;51.176;6.738;2024-03-25T08:09:11;5.80;80.70
48551;DHT22;34397;51.176;6.738;2024-03-25T08:11:42;5.90;80.40
48551;DHT22;34397;51.176;6.738;2024-03-25T08:14:14;5.90;80.30
48551;DHT22;34397;51.176;6.738;2024-03-25T08:16:46;5.90;80.30
48551;DHT22;34397;51.176;6.738;2024-03-25T08:19:17;5.90;80.60
48551;DHT22;34397;51.176;6.738;2024-03-25T08:21:48;6.00;80.40
48551;DHT22;34397;51.176;6.738;2024-03-25T08:24:19;6.00;80.30
48551;DHT22;34397;51.176;6.738;2024-03-25T08:26:50;6.10;80.30
48551;DHT22;34397;51.176;6.738;2024-03-25T08:29:21;6.20;80.20
48551;DHT22;34397;51.176;6.738;2024-03-25T08:31:53;6.20;80.10
48551;DHT22;34397;51.176;6.738;2024-03-25T08:34:24;6.30;79.40
48551;DHT22;34397;51.176;6.738;2024-03-25T08:36:55;6.40;78.80
48551;DHT22;34397;51.176;6.738;2024-03-25T08:39:26;6.40;78.50
48551;DHT22;34397;51.176;6.738;2024-03-25T08:41:57;6.50;78.10
48551;DHT22;34397;51.176;6.738;2024-03-25T08:44:28;6.50;78.30
48551;DHT22;34397;51.176;6.738;2024-03-25T08:47:01;6.50;78.40
48551;DHT22;34397;51.176;6.738;2024-03-25T08:49:31;6.60;78.10
48551;DHT22;34397;51.176;6.738;2024-03-25T08:52:03;6.70;77.70
48551;DHT22;34397;51.176;6.738;2024-03-25T08:54:34;6.70;77.60
48551;DHT22;34397;51.176;6.738;2024-03-25T08:57:05;6.80;77.50
48551;DHT22;34397;51.176;6.738;2024-03-25T08:59:36;6.90;77.40
48551;DHT22;34397;51.176;6.738;2024-03-25T09:02:08;7.00;76.20
48551;DHT22;34397;51.176;6.738;2024-03-25T09:04:39;7.00;76.40
48551;DHT22;34397;51.176;6.738;2024-03-25T09:07:10;7.00;76.50
48551;DHT22;34397;51.176;6.738;2024-03-25T09:09:41;7.10;75.40
48551;DHT22;34397;51.176;6.738;2024-03-25T09:12:31;7.10;74.60
48551;DHT22;34397;51.176;6.738;2024-03-25T09:15:02;7.20;75.00
48551;DHT22;34397;51.176;6.738;2024-03-25T09:17:34;7.30;74.20
48551;DHT22;34397;51.176;6.738;2024-03-25T09:20:07;7.30;73.70
48551;DHT22;34397;51.176;6.738;2024-03-25T09:22:38;7.40;73.20
48551;DHT22;34397;51.176;6.738;2024-03-25T09:25:10;7.50;73.00
48551;DHT22;34397;51.176;6.738;2024-03-25T09:27:41;7.50;71.50
48551;DHT22;34397;51.176;6.738;2024-03-25T09:30:16;7.60;72.40
48551;DHT22;34397;51.176;6.738;2024-03-25T09:32:49;7.80;73.50
48551;DHT22;34397;51.176;6.738;2024-03-25T09:35:20;7.90;73.70
48551;DHT22;34397;51.176;6.738;2024-03-25T09:37:51;8.00;73.50
48551;DHT22;34397;51.176;6.738;2024-03-25T09:40:22;8.10;73.30
48551;DHT22;34397;51.176;6.738;2024-03-25T09:42:56;8.30;71.60
48551;DHT22;34397;51.176;6.738;2024-03-25T09:45:29;8.50;70.80
48551;DHT22;34397;51.176;6.738;2024-03-25T09:48:04;8.60;70.60
48551;DHT22;34397;51.176;6.738;2024-03-25T09:50:36;8.80;70.40
48551;DHT22;34397;51.176;6.738;2024-03-25T09:53:08;8.90;69.90
48551;DHT22;34397;51.176;6.738;2024-03-25T09:55:40;9.00;69.20
48551;DHT22;34397;51.176;6.738;2024-03-25T09:58:11;9.00;68.00
48551;DHT22;34397;51.176;6.738;2024-03-25T10:00:42;9.10;67.30
48551;DHT22;34397;51.176;6.738;2024-03-25T10:03:14;9.20;68.00
48551;DHT22;34397;51.176;6.738;2024-03-25T10:05:45;9.20;68.10
48551;DHT22;34397;51.176;6.738;2024-03-25T10:08:20;9.30;67.70
48551;DHT22;34397;51.176;6.738;2024-03-25T10:10:51;9.30;66.70
48551;DHT22;34397;51.176;6.738;2024-03-25T10:13:22;9.40;67.10
48551;DHT22;34397;51.176;6.738;2024-03-25T10:15:55;9.50;66.30
48551;DHT22;34397;51.176;6.738;2024-03-25T10:18:27;9.60;65.90
48551;DHT22;34397;51.176;6.738;2024-03-25T10:20:58;9.70;64.70
48551;DHT22;34397;51.176;6.738;2024-03-25T10:23:29;9.90;65.30
48551;DHT22;34397;51.176;6.738;2024-03-25T10:26:00;10.10;63.00
48551;DHT22;34397;51.176;6.738;2024-03-25T10:28:31;10.30;63.30
48551;DHT22;34397;51.176;6.738;2024-03-25T10:31:06;10.60;65.20
48551;DHT22;34397;51.176;6.738;2024-03-25T10:33:38;11.10;63.10
48551;DHT22;34397;51.176;6.738;2024-03-25T10:36:09;11.60;62.00
48551;DHT22;34397;51.176;6.738;2024-03-25T10:38:40;12.20;61.80
48551;DHT22;34397;51.176;6.738;2024-03-25T10:41:13;12.80;57.90
48551;DHT22;34397;51.176;6.738;2024-03-25T10:43:48;13.30;57.50
48551;DHT22;34397;51.176;6.738;2024-03-25T10:46:20;13.80;56.60
48551;DHT22;34397;51.176;6.738;2024-03-25T10:48:57;14.20;54.50
48551;DHT22;34397;51.176;6.738;2024-03-25T10:51:33;14.70;52.90
48551;DHT22;34397;51.176;6.738;2024-03-25T10:54:06;15.20;53.10
48551;DHT22;34397;51.176;6.738;2024-03-25T10:56:38;15.70;52.20
48551;DHT22;34397;51.176;6.738;2024-03-25T10:59:10;16.30;51.80
48551;DHT22;34397;51.176;6.738;2024-03-25T11:01:43;16.80;49.30
48551;DHT22;34397;51.176;6.738;2024-03-25T11:04:15;17.30;45.60
48551;DHT22;34397;51.176;6.738;2024-03-25T11:06:46;17.70;44.90
48551;DHT22;34397;51.176;6.738;2024-03-25T11:09:24;18.20;45.10
48551;DHT22;34397;51.176;6.738;2024-03-25T11:11:56;18.50;43.40
48551;DHT22;34397;51.176;6.738;2024-03-25T11:14:27;18.80;44.50
48551;DHT22;34397;51.176;6.738;2024-03-25T11:16:58;19.10;44.30
48551;DHT22;34397;51.176;6.738;2024-03-25T11:19:31;19.40;43.70
48551;DHT22;34397;51.176;6.738;2024-03-25T11:22:07;19.60;42.90
48551;DHT22;34397;51.176;6.738;2024-03-25T11:24:43;19.70;40.90
48551;DHT22;34397;51.176;6.738;2024-03-25T11:27:14;19.90;40.80
48551;DHT22;34397;51.176;6.738;2024-03-25T11:29:45;20.10;41.40
48551;DHT22;34397;51.176;6.738;2024-03-25T11:32:16;20.10;39.80
48551;DHT22;34397;51.176;6.738;2024-03-25T11:34:51;20.00;39.10
48551;DHT22;34397;51.176;6.738;2024-03-25T11:37:22;19.90;38.50
48551;DHT22;34397;51.176;6.738;2024-03-25T11:40:01;19.90;40.00
48551;DHT22;34397;51.176;6.738;2024-03-25T11:42:34;20.00;38.30
48551;DHT22;34397;51.176;6.738;2024-03-25T11:45:05;20.20;39.20
48551;DHT22;34397;51.176;6.738;2024-03-25T11:47:37;20.30;38.80
48551;DHT22;34397;51.176;6.738;2024-03-25T11:50:12;20.40;37.70
48551;DHT22;34397;51.176;6.738;2024-03-25T11:52:44;20.40;37.10
48551;DHT22;34397;51.176;6.738;2024-03-25T11:55:16;20.30;36.20
48551;DHT22;34397;51.176;6.738;2024-03-25T11:57:55;20.20;37.30
48551;DHT22;34397;51.176;6.738;2024-03-25T12:00:26;20.20;37.60
48551;DHT22;34397;51.176;6.738;2024-03-25T12:02:57;20.30;38.10
48551;DHT22;34397;51.176;6.738;2024-03-25T12:05:29;20.30;37.70
48551;DHT22;34397;51.176;6.738;2024-03-25T12:08:00;20.50;35.70
48551;DHT22;34397;51.176;6.738;2024-03-25T12:10:31;20.70;37.20
48551;DHT22;34397;51.176;6.738;2024-03-25T12:13:21;20.90;35.60
48551;DHT22;34397;51.176;6.738;2024-03-25T12:15:52;21.30;35.40
48551;DHT22;34397;51.176;6.738;2024-03-25T12:18:23;21.40;33.60
48551;DHT22;34397;51.176;6.738;2024-03-25T12:20:58;21.70;33.80
48551;DHT22;34397;51.176;6.738;2024-03-25T12:23:29;22.00;32.10
48551;DHT22;34397;51.176;6.738;2024-03-25T12:26:01;22.30;32.80
48551;DHT22;34397;51.176;6.738;2024-03-25T12:28:32;22.60;33.50
48551;DHT22;34397;51.176;6.738;2024-03-25T12:31:07;22.80;34.00
48551;DHT22;34397;51.176;6.738;2024-03-25T12:33:42;23.10;33.20
48551;DHT22;34397;51.176;6.738;2024-03-25T12:36:14;23.30;32.10
48551;DHT22;34397;51.176;6.738;2024-03-25T12:38:54;23.40;31.40
48551;DHT22;34397;51.176;6.738;2024-03-25T12:41:25;23.60;31.80
48551;DHT22;34397;51.176;6.738;2024-03-25T12:43:56;23.70;31.20
48551;DHT22;34397;51.176;6.738;2024-03-25T12:46:27;23.80;31.30
48551;DHT22;34397;51.176;6.738;2024-03-25T12:48:58;24.00;30.70
48551;DHT22;34397;51.176;6.738;2024-03-25T12:51:30;24.00;30.00
48551;DHT22;34397;51.176;6.738;2024-03-25T12:54:01;24.20;30.40
48551;DHT22;34397;51.176;6.738;2024-03-25T12:56:32;24.30;31.90
48551;DHT22;34397;51.176;6.738;2024-03-25T12:59:03;24.40;29.90
48551;DHT22;34397;51.176;6.738;2024-03-25T13:01:34;24.60;30.00
48551;DHT22;34397;51.176;6.738;2024-03-25T13:04:05;24.60;29.50
48551;DHT22;34397;51.176;6.738;2024-03-25T13:06:38;24.60;29.90
48551;DHT22;34397;51.176;6.738;2024-03-25T13:09:09;24.60;30.00
48551;DHT22;34397;51.176;6.738;2024-03-25T13:11:40;24.50;30.30
48551;DHT22;34397;51.176;6.738;2024-03-25T13:14:12;24.40;30.20
48551;DHT22;34397;51.176;6.738;2024-03-25T13:16:43;24.20;29.60
48551;DHT22;34397;51.176;6.738;2024-03-25T13:19:14;24.10;28.30
48551;DHT22;34397;51.176;6.738;2024-03-25T13:21:46;24.20;29.30
48551;DHT22;34397;51.176;6.738;2024-03-25T13:24:17;24.20;29.60
48551;DHT22;34397;51.176;6.738;2024-03-25T13:26:48;24.20;27.90
48551;DHT22;34397;51.176;6.738;2024-03-25T13:29:19;24.20;28.40
48551;DHT22;34397;51.176;6.738;2024-03-25T13:31:50;24.30;29.40
48551;DHT22;34397;51.176;6.738;2024-03-25T13:34:21;24.20;28.60
48551;DHT22;34397;51.176;6.738;2024-03-25T13:36:54;24.20;28.30
48551;DHT22;34397;51.176;6.738;2024-03-25T13:39:25;24.20;27.60
48551;DHT22;34397;51.176;6.738;2024-03-25T13:41:56;24.30;27.80
48551;DHT22;34397;51.176;6.738;2024-03-25T13:44:27;24.40;29.30
48551;DHT22;34397;51.176;6.738;2024-03-25T13:46:58;24.30;27.60
48551;DHT22;34397;51.176;6.738;2024-03-25T13:49:29;24.30;27.70
48551;DHT22;34397;51.176;6.738;2024-03-25T13:52:03;24.30;27.90
48551;DHT22;34397;51.176;6.738;2024-03-25T13:54:34;24.40;27.60
48551;DHT22;34397;51.176;6.738;2024-03-25T13:57:05;24.40;27.80
48551;DHT22;34397;51.176;6.738;2024-03-25T13:59:36;24.50;27.40
48551;DHT22;34397;51.176;6.738;2024-03-25T14:02:07;24.60;27.90
48551;DHT22;34397;51.176;6.738;2024-03-25T14:04:38;24.50;27.10
48551;DHT22;34397;51.176;6.738;2024-03-25T14:07:10;24.50;27.00
48551;DHT22;34397;51.176;6.738;2024-03-25T14:09:41;24.40;27.10
48551;DHT22;34397;51.176;6.738;2024-03-25T14:12:12;24.40;27.40
48551;DHT22;34397;51.176;6.738;2024-03-25T14:14:43;24.40;27.50
48551;DHT22;34397;51.176;6.738;2024-03-25T14:17:14;24.50;28.30
48551;DHT22;34397;51.176;6.738;2024-03-25T14:19:45;24.40;28.40
48551;DHT22;34397;51.176;6.738;2024-03-25T14:22:17;24.60;27.90
48551;DHT22;34397;51.176;6.738;2024-03-25T14:24:48;24.50;27.30
48551;DHT22;34397;51.176;6.738;2024-03-25T14:27:19;24.50;27.20
48551;DHT22;34397;51.176;6.738;2024-03-25T14:29:50;24.50;27.60
48551;DHT22;34397;51.176;6.738;2024-03-25T14:32:22;24.50;27.50
48551;DHT22;34397;51.176;6.738;2024-03-25T14:34:54;24.30;27.90
48551;DHT22;34397;51.176;6.738;2024-03-25T14:37:27;24.10;27.60
48551;DHT22;34397;51.176;6.738;2024-03-25T14:39:58;24.10;28.40
48551;DHT22;34397;51.176;6.738;2024-03-25T14:42:29;24.00;28.10
48551;DHT22;34397;51.176;6.738;2024-03-25T14:45:00;23.90;27.80
48551;DHT22;34397;51.176;6.738;2024-03-25T14:47:31;23.90;28.00
48551;DHT22;34397;51.176;6.738;2024-03-25T14:50:02;23.90;28.10
48551;DHT22;34397;51.176;6.738;2024-03-25T14:52:35;23.90;28.40
48551;DHT22;34397;51.176;6.738;2024-03-25T14:55:06;23.90;29.60
48551;DHT22;34397;51.176;6.738;2024-03-25T14:57:38;23.90;28.60
48551;DHT22;34397;51.176;6.738;2024-03-25T15:00:10;23.90;28.00
48551;DHT22;34397;51.176;6.738;2024-03-25T15:02:41;23.90;28.20
48551;DHT22;34397;51.176;6.738;2024-03-25T15:05:12;23.80;28.10
48551;DHT22;34397;51.176;6.738;2024-03-25T15:07:45;23.70;28.10
48551;DHT22;34397;51.176;6.738;2024-03-25T15:10:16;23.70;28.60
48551;DHT22;34397;51.176;6.738;2024-03-25T15:12:47;23.30;29.00
48551;DHT22;34397;51.176;6.738;2024-03-25T15:15:18;23.20;28.90
48551;DHT22;34397;51.176;6.738;2024-03-25T15:17:49;23.10;29.00
48551;DHT22;34397;51.176;6.738;2024-03-25T15:20:20;23.10;28.50
48551;DHT22;34397;51.176;6.738;2024-03-25T15:22:53;23.10;28.80
48551;DHT22;34397;51.176;6.738;2024-03-25T15:25:24;23.00;28.30
48551;DHT22;34397;51.176;6.738;2024-03-25T15:27:55;22.90;28.70
48551;DHT22;34397;51.176;6.738;2024-03-25T15:30:26;22.80;28.70
48551;DHT22;34397;51.176;6.738;2024-03-25T15:32:57;22.80;28.50
48551;DHT22;34397;51.176;6.738;2024-03-25T15:35:27;22.70;28.20
48551;DHT22;34397;51.176;6.738;2024-03-25T15:38:00;22.60;27.90
48551;DHT22;34397;51.176;6.738;2024-03-25T15:40:31;22.40;27.70
48551;DHT22;34397;51.176;6.738;2024-03-25T15:43:02;22.20;27.90
48551;DHT22;34397;51.176;6.738;2024-03-25T15:45:33;22.00;28.50
48551;DHT22;34397;51.176;6.738;2024-03-25T15:48:04;21.80;28.20
48551;DHT22;34397;51.176;6.738;2024-03-25T15:50:36;21.50;28.30
48551;DHT22;34397;51.176;6.738;2024-03-25T15:53:08;21.30;28.80
48551;DHT22;34397;51.176;6.738;2024-03-25T15:55:39;21.20;28.40
48551;DHT22;34397;51.176;6.738;2024-03-25T15:58:10;21.00;28.90
48551;DHT22;34397;51.176;6.738;2024-03-25T16:00:42;20.80;29.20
48551;DHT22;34397;51.176;6.738;2024-03-25T16:03:13;20.60;29.60
48551;DHT22;34397;51.176;6.738;2024-03-25T16:05:43;20.40;30.60
48551;DHT22;34397;51.176;6.738;2024-03-25T16:08:16;20.20;31.30